UTA375 UUWW-UUYY
Flight info
| Callsign | UTA375 |
|---|---|
| Flight time | 1h 29m |
| Altitude | 37000 |
| Route | RILPO T753 TUNOB T791 MOVUN P149 ALAKI |
| Aircraft | T154/M-SDFGRWY/S |
Departure
| Time | 2026-05-05 20:02 |
|---|---|
| Airport | Vnukovo International Airport (UUWW) |
Arrival
| Time | 2026-05-05 21:31 |
|---|---|
| Airport | Syktyvkar Airport (UUYY) |
| Time | Latitude | Longitude | Altitude | Speed | Heading |
|---|---|---|---|---|---|
| 2026-05-05 18:54 | 55.60137 | 37.27746 | 695 ft | 0 kts | 64° |
| 2026-05-05 19:52 | 55.60140 | 37.27760 | 695 ft | 2 kts | 64° |
| 2026-05-05 19:53 | 55.60144 | 37.27771 | 695 ft | 0 kts | 63° |
| 2026-05-05 19:53 | 55.60144 | 37.27773 | 695 ft | 0 kts | 63° |
| 2026-05-05 19:53 | 55.60151 | 37.27797 | 695 ft | 4 kts | 66° |
| 2026-05-05 19:53 | 55.60151 | 37.27848 | 695 ft | 4 kts | 113° |
| 2026-05-05 19:54 | 55.60132 | 37.27897 | 695 ft | 5 kts | 131° |
| 2026-05-05 19:54 | 55.60109 | 37.27951 | 695 ft | 5 kts | 123° |
| 2026-05-05 19:54 | 55.60087 | 37.28015 | 695 ft | 6 kts | 116° |
| 2026-05-05 19:54 | 55.60075 | 37.28094 | 695 ft | 7 kts | 94° |
| 2026-05-05 19:55 | 55.60077 | 37.28183 | 695 ft | 7 kts | 86° |
| 2026-05-05 19:55 | 55.60081 | 37.28279 | 695 ft | 8 kts | 85° |
| 2026-05-05 19:55 | 55.60089 | 37.28381 | 695 ft | 8 kts | 75° |
| 2026-05-05 19:55 | 55.60120 | 37.28475 | 695 ft | 9 kts | 47° |
| 2026-05-05 19:56 | 55.60165 | 37.28560 | 695 ft | 8 kts | 46° |
| 2026-05-05 19:56 | 55.60206 | 37.28638 | 695 ft | 8 kts | 57° |
| 2026-05-05 19:56 | 55.60196 | 37.28734 | 695 ft | 8 kts | 127° |
| 2026-05-05 19:56 | 55.60169 | 37.28783 | 695 ft | 0 kts | 135° |
| 2026-05-05 19:57 | 55.60167 | 37.28786 | 695 ft | 0 kts | 135° |
| 2026-05-05 19:57 | 55.60164 | 37.28793 | 695 ft | 0 kts | 135° |
| 2026-05-05 19:58 | 55.60159 | 37.28800 | 695 ft | 2 kts | 137° |
| 2026-05-05 19:58 | 55.60137 | 37.28832 | 695 ft | 5 kts | 143° |
| 2026-05-05 19:58 | 55.60092 | 37.28871 | 695 ft | 6 kts | 165° |
| 2026-05-05 19:59 | 55.60047 | 37.28892 | 695 ft | 6 kts | 166° |
| 2026-05-05 19:59 | 55.59999 | 37.28913 | 695 ft | 7 kts | 166° |
| 2026-05-05 19:59 | 55.59947 | 37.28935 | 695 ft | 7 kts | 166° |
| 2026-05-05 19:59 | 55.59892 | 37.28958 | 695 ft | 8 kts | 166° |
| 2026-05-05 20:00 | 55.59835 | 37.28985 | 695 ft | 8 kts | 165° |
| 2026-05-05 20:00 | 55.59798 | 37.28978 | 695 ft | 4 kts | 227° |
| 2026-05-05 20:00 | 55.59783 | 37.28928 | 695 ft | 2 kts | 248° |
| 2026-05-05 20:00 | 55.59782 | 37.28925 | 695 ft | 0 kts | 248° |
| 2026-05-05 20:01 | 55.59782 | 37.28923 | 695 ft | 0 kts | 248° |
| 2026-05-05 20:01 | 55.59764 | 37.28847 | 695 ft | 31 kts | 247° |
| 2026-05-05 20:01 | 55.59598 | 37.28112 | 695 ft | 96 kts | 248° |
| 2026-05-05 20:01 | 55.59283 | 37.26703 | 696 ft | 146 kts | 248° |
| 2026-05-05 20:02 | 55.58881 | 37.24915 | 915 ft | 159 kts | 248° |
| 2026-05-05 20:02 | 55.58482 | 37.23116 | 1331 ft | 157 kts | 248° |
| 2026-05-05 20:02 | 55.58038 | 37.21389 | 1746 ft | 154 kts | 237° |
| 2026-05-05 20:02 | 55.57340 | 37.19972 | 2158 ft | 152 kts | 225° |
| 2026-05-05 20:03 | 55.56587 | 37.18627 | 2466 ft | 157 kts | 229° |
| 2026-05-05 20:03 | 55.55891 | 37.17141 | 2831 ft | 157 kts | 234° |
| 2026-05-05 20:03 | 55.55256 | 37.15584 | 3200 ft | 157 kts | 240° |
| 2026-05-05 20:03 | 55.54841 | 37.13795 | 3445 ft | 163 kts | 261° |
| 2026-05-05 20:04 | 55.54808 | 37.11785 | 3751 ft | 166 kts | 270° |
| 2026-05-05 20:04 | 55.54836 | 37.09760 | 4063 ft | 166 kts | 270° |
| 2026-05-05 20:04 | 55.54843 | 37.07713 | 4375 ft | 168 kts | 269° |
| 2026-05-05 20:04 | 55.55034 | 37.05683 | 4684 ft | 171 kts | 288° |
| 2026-05-05 20:05 | 55.55721 | 37.03920 | 4914 ft | 181 kts | 313° |
| 2026-05-05 20:05 | 55.56850 | 37.02846 | 5162 ft | 192 kts | 340° |
| 2026-05-05 20:05 | 55.58203 | 37.02666 | 5432 ft | 199 kts | 356° |
| 2026-05-05 20:05 | 55.59594 | 37.02735 | 5657 ft | 203 kts | 355° |
| 2026-05-05 20:06 | 55.61018 | 37.02740 | 5844 ft | 207 kts | 353° |
| 2026-05-05 20:06 | 55.62523 | 37.02683 | 5990 ft | 226 kts | 352° |
| 2026-05-05 20:06 | 55.64111 | 37.02342 | 6240 ft | 237 kts | 346° |
| 2026-05-05 20:06 | 55.65732 | 37.01564 | 6426 ft | 254 kts | 333° |
| 2026-05-05 20:07 | 55.67446 | 37.00281 | 6675 ft | 278 kts | 332° |
| 2026-05-05 20:07 | 55.69228 | 36.98923 | 7378 ft | 286 kts | 333° |
| 2026-05-05 20:07 | 55.71123 | 36.97530 | 7730 ft | 305 kts | 333° |
| 2026-05-05 20:07 | 55.73131 | 36.96093 | 8238 ft | 319 kts | 333° |
| 2026-05-05 20:08 | 55.75192 | 36.94604 | 8977 ft | 323 kts | 332° |
| 2026-05-05 20:08 | 55.77234 | 36.93038 | 9813 ft | 323 kts | 332° |
| 2026-05-05 20:08 | 55.79306 | 36.91406 | 10450 ft | 330 kts | 332° |
| 2026-05-05 20:08 | 55.81443 | 36.89924 | 11192 ft | 336 kts | 340° |
| 2026-05-05 20:09 | 55.83777 | 36.89341 | 11870 ft | 348 kts | 358° |
| 2026-05-05 20:09 | 55.86181 | 36.89605 | 12656 ft | 349 kts | 359° |
| 2026-05-05 20:09 | 55.88609 | 36.89826 | 13278 ft | 354 kts | 358° |
| 2026-05-05 20:09 | 55.91079 | 36.89943 | 13874 ft | 360 kts | 356° |
| 2026-05-05 20:10 | 55.93585 | 36.90030 | 14529 ft | 363 kts | 357° |
| 2026-05-05 20:10 | 55.96096 | 36.90141 | 15318 ft | 363 kts | 357° |
| 2026-05-05 20:10 | 55.98612 | 36.90231 | 16010 ft | 366 kts | 359° |
| 2026-05-05 20:10 | 56.01139 | 36.90917 | 16645 ft | 376 kts | 13° |
| 2026-05-05 20:11 | 56.03514 | 36.92959 | 17193 ft | 388 kts | 33° |
| 2026-05-05 20:11 | 56.05556 | 36.96105 | 17908 ft | 390 kts | 40° |
| 2026-05-05 20:11 | 56.07585 | 36.99267 | 18619 ft | 390 kts | 35° |
| 2026-05-05 20:11 | 56.09770 | 37.02152 | 19121 ft | 395 kts | 31° |
| 2026-05-05 20:12 | 56.12008 | 37.05010 | 19743 ft | 399 kts | 35° |
| 2026-05-05 20:12 | 56.14066 | 37.08340 | 20358 ft | 405 kts | 44° |
| 2026-05-05 20:12 | 56.15996 | 37.12034 | 20882 ft | 410 kts | 44° |
| 2026-05-05 20:12 | 56.17944 | 37.15748 | 21507 ft | 412 kts | 43° |
| 2026-05-05 20:13 | 56.19921 | 37.19430 | 22175 ft | 413 kts | 42° |
| 2026-05-05 20:13 | 56.21940 | 37.23100 | 22720 ft | 417 kts | 41° |
| 2026-05-05 20:13 | 56.23991 | 37.26806 | 23125 ft | 424 kts | 39° |
| 2026-05-05 20:13 | 56.26286 | 37.30091 | 23510 ft | 425 kts | 26° |
| 2026-05-05 20:14 | 56.28943 | 37.32292 | 24057 ft | 421 kts | 15° |
| 2026-05-05 20:14 | 56.31658 | 37.34222 | 24731 ft | 422 kts | 17° |
| 2026-05-05 20:14 | 56.34358 | 37.36270 | 25361 ft | 424 kts | 18° |
| 2026-05-05 20:14 | 56.37075 | 37.38390 | 25799 ft | 431 kts | 18° |
| 2026-05-05 20:15 | 56.39815 | 37.40657 | 26169 ft | 442 kts | 26° |
| 2026-05-05 20:15 | 56.42257 | 37.44098 | 26656 ft | 455 kts | 42° |
| 2026-05-05 20:15 | 56.44342 | 37.48409 | 27242 ft | 459 kts | 46° |
| 2026-05-05 20:15 | 56.46417 | 37.52732 | 27979 ft | 457 kts | 44° |
| 2026-05-05 20:16 | 56.48585 | 37.56916 | 28437 ft | 461 kts | 41° |
| 2026-05-05 20:16 | 56.50809 | 37.61080 | 28988 ft | 463 kts | 41° |
| 2026-05-05 20:16 | 56.53051 | 37.65255 | 29466 ft | 467 kts | 41° |
| 2026-05-05 20:16 | 56.55339 | 37.69491 | 29825 ft | 474 kts | 42° |
| 2026-05-05 20:17 | 56.57625 | 37.73766 | 30414 ft | 475 kts | 42° |
| 2026-05-05 20:17 | 56.59926 | 37.78053 | 30900 ft | 479 kts | 41° |
| 2026-05-05 20:17 | 56.62262 | 37.82398 | 31245 ft | 485 kts | 41° |
| 2026-05-05 20:17 | 56.64623 | 37.86774 | 31774 ft | 487 kts | 40° |
| 2026-05-05 20:18 | 56.67054 | 37.91040 | 32201 ft | 490 kts | 39° |
| 2026-05-05 20:18 | 56.69524 | 37.95341 | 32616 ft | 494 kts | 39° |
| 2026-05-05 20:18 | 56.71984 | 37.99702 | 33032 ft | 498 kts | 40° |
| 2026-05-05 20:18 | 56.74463 | 38.04135 | 33429 ft | 502 kts | 40° |
| 2026-05-05 20:19 | 56.76944 | 38.08575 | 33939 ft | 503 kts | 40° |
| 2026-05-05 20:19 | 56.79427 | 38.13031 | 34530 ft | 502 kts | 40° |
| 2026-05-05 20:19 | 56.81901 | 38.17479 | 35083 ft | 501 kts | 40° |
| 2026-05-05 20:19 | 56.84387 | 38.21950 | 35306 ft | 508 kts | 40° |
| 2026-05-05 20:20 | 56.86910 | 38.26494 | 35459 ft | 515 kts | 40° |
| 2026-05-05 20:20 | 56.89484 | 38.31045 | 35660 ft | 518 kts | 37° |
| 2026-05-05 20:20 | 56.92233 | 38.35209 | 35849 ft | 514 kts | 33° |
| 2026-05-05 20:20 | 56.95000 | 38.39312 | 35991 ft | 514 kts | 34° |
| 2026-05-05 20:21 | 56.97719 | 38.43527 | 36121 ft | 515 kts | 36° |
| 2026-05-05 20:21 | 57.00439 | 38.47791 | 36241 ft | 516 kts | 36° |
| 2026-05-05 20:21 | 57.03155 | 38.52054 | 36368 ft | 516 kts | 36° |
| 2026-05-05 20:21 | 57.05865 | 38.56326 | 36495 ft | 517 kts | 36° |
| 2026-05-05 20:22 | 57.08579 | 38.60615 | 36623 ft | 517 kts | 36° |
| 2026-05-05 20:22 | 57.11290 | 38.64909 | 36737 ft | 518 kts | 36° |
| 2026-05-05 20:22 | 57.14016 | 38.69218 | 36736 ft | 520 kts | 37° |
| 2026-05-05 20:23 | 57.19480 | 38.77923 | 36821 ft | 523 kts | 37° |
| 2026-05-05 20:23 | 57.24943 | 38.86662 | 36809 ft | 521 kts | 37° |
| 2026-05-05 20:24 | 57.30348 | 38.95346 | 36798 ft | 514 kts | 37° |
| 2026-05-05 20:24 | 57.35686 | 39.03951 | 36796 ft | 509 kts | 37° |
| 2026-05-05 20:25 | 57.40972 | 39.12507 | 36798 ft | 504 kts | 37° |
| 2026-05-05 20:25 | 57.46236 | 39.21060 | 36803 ft | 504 kts | 37° |
| 2026-05-05 20:26 | 57.51480 | 39.29608 | 36820 ft | 504 kts | 37° |
| 2026-05-05 20:26 | 57.56746 | 39.38184 | 36815 ft | 505 kts | 36° |
| 2026-05-05 20:27 | 57.62007 | 39.46794 | 36815 ft | 506 kts | 37° |
| 2026-05-05 20:27 | 57.67267 | 39.55442 | 36815 ft | 506 kts | 37° |
| 2026-05-05 20:28 | 57.72528 | 39.64124 | 36819 ft | 507 kts | 37° |
| 2026-05-05 20:28 | 57.77784 | 39.72865 | 36795 ft | 507 kts | 37° |
| 2026-05-05 20:29 | 57.83027 | 39.81603 | 36805 ft | 506 kts | 37° |
| 2026-05-05 20:29 | 57.88273 | 39.90370 | 36807 ft | 507 kts | 38° |
| 2026-05-05 20:30 | 57.93475 | 39.99177 | 36825 ft | 506 kts | 37° |
| 2026-05-05 20:30 | 57.98676 | 40.08017 | 36825 ft | 505 kts | 38° |
| 2026-05-05 20:31 | 58.03867 | 40.16869 | 36821 ft | 505 kts | 38° |
| 2026-05-05 20:31 | 58.09058 | 40.25757 | 36820 ft | 505 kts | 38° |
| 2026-05-05 20:32 | 58.14249 | 40.34642 | 36758 ft | 506 kts | 37° |
| 2026-05-05 20:32 | 58.19431 | 40.43545 | 36794 ft | 505 kts | 37° |
| 2026-05-05 20:33 | 58.24629 | 40.52397 | 36804 ft | 504 kts | 37° |
| 2026-05-05 20:33 | 58.29807 | 40.61285 | 36809 ft | 505 kts | 37° |
| 2026-05-05 20:34 | 58.34989 | 40.70234 | 36785 ft | 507 kts | 39° |
| 2026-05-05 20:34 | 58.40187 | 40.79262 | 36805 ft | 509 kts | 39° |
| 2026-05-05 20:35 | 58.45399 | 40.88331 | 36815 ft | 510 kts | 38° |
| 2026-05-05 20:35 | 58.50628 | 40.97463 | 36817 ft | 512 kts | 38° |
| 2026-05-05 20:36 | 58.55861 | 41.06642 | 36805 ft | 514 kts | 39° |
| 2026-05-05 20:36 | 58.61105 | 41.15880 | 36811 ft | 515 kts | 39° |
| 2026-05-05 20:37 | 58.66354 | 41.25163 | 36813 ft | 516 kts | 39° |
| 2026-05-05 20:37 | 58.71613 | 41.34505 | 36819 ft | 517 kts | 39° |
| 2026-05-05 20:38 | 58.76867 | 41.43878 | 36807 ft | 518 kts | 38° |
| 2026-05-05 20:38 | 58.82554 | 41.52099 | 36818 ft | 513 kts | 30° |
| 2026-05-05 20:39 | 58.88323 | 41.60197 | 36824 ft | 515 kts | 32° |
| 2026-05-05 20:39 | 58.94057 | 41.68390 | 36795 ft | 516 kts | 33° |
| 2026-05-05 20:40 | 58.99787 | 41.76649 | 36789 ft | 516 kts | 33° |
| 2026-05-05 20:40 | 59.05524 | 41.84927 | 36787 ft | 516 kts | 33° |
| 2026-05-05 20:41 | 59.11243 | 41.93210 | 36760 ft | 515 kts | 33° |
| 2026-05-05 20:41 | 59.16967 | 42.01491 | 36755 ft | 514 kts | 33° |
| 2026-05-05 20:42 | 59.22653 | 42.09790 | 36771 ft | 512 kts | 33° |
| 2026-05-05 20:42 | 59.28318 | 42.18099 | 36772 ft | 511 kts | 33° |
| 2026-05-05 20:43 | 59.33971 | 42.26427 | 36778 ft | 511 kts | 33° |
| 2026-05-05 20:43 | 59.39531 | 42.34952 | 36762 ft | 514 kts | 42° |
| 2026-05-05 20:44 | 59.44178 | 42.45522 | 36825 ft | 513 kts | 45° |
| 2026-05-05 20:44 | 59.48943 | 42.55920 | 36802 ft | 515 kts | 45° |
| 2026-05-05 20:45 | 59.56089 | 42.71623 | 36751 ft | 517 kts | 46° |
| 2026-05-05 20:45 | 59.60859 | 42.82162 | 36756 ft | 517 kts | 46° |
| 2026-05-05 20:46 | 59.65628 | 42.92727 | 36765 ft | 518 kts | 46° |
| 2026-05-05 20:46 | 59.70393 | 43.03328 | 36769 ft | 518 kts | 46° |
| 2026-05-05 20:47 | 59.75163 | 43.13990 | 36780 ft | 518 kts | 46° |
| 2026-05-05 20:47 | 59.79920 | 43.24661 | 36778 ft | 519 kts | 46° |
| 2026-05-05 20:48 | 59.84668 | 43.35388 | 36781 ft | 519 kts | 46° |
| 2026-05-05 20:48 | 59.89428 | 43.46098 | 36778 ft | 519 kts | 46° |
| 2026-05-05 20:49 | 59.94187 | 43.56846 | 36775 ft | 519 kts | 46° |
| 2026-05-05 20:49 | 59.98368 | 43.68535 | 36940 ft | 525 kts | 57° |
| 2026-05-05 20:50 | 60.00344 | 43.74673 | 36465 ft | 525 kts | 55° |
| 2026-05-05 20:50 | 60.02325 | 43.80620 | 36725 ft | 514 kts | 55° |
| 2026-05-05 20:50 | 60.06247 | 43.92460 | 36724 ft | 513 kts | 55° |
| 2026-05-05 20:51 | 60.10181 | 44.04357 | 36751 ft | 516 kts | 55° |
| 2026-05-05 20:51 | 60.14157 | 44.16337 | 36739 ft | 520 kts | 55° |
| 2026-05-05 20:52 | 60.18124 | 44.28420 | 36761 ft | 521 kts | 55° |
| 2026-05-05 20:52 | 60.22086 | 44.40572 | 36760 ft | 522 kts | 55° |
| 2026-05-05 20:53 | 60.26035 | 44.52752 | 36763 ft | 522 kts | 55° |
| 2026-05-05 20:53 | 60.29983 | 44.64961 | 36764 ft | 523 kts | 55° |
| 2026-05-05 20:54 | 60.33946 | 44.77220 | 36741 ft | 523 kts | 56° |
| 2026-05-05 20:54 | 60.37888 | 44.89481 | 36751 ft | 523 kts | 56° |
| 2026-05-05 20:55 | 60.41814 | 45.01777 | 36751 ft | 523 kts | 56° |
| 2026-05-05 20:55 | 60.45718 | 45.14095 | 36754 ft | 523 kts | 56° |
| 2026-05-05 20:56 | 60.49617 | 45.26471 | 36756 ft | 523 kts | 56° |
| 2026-05-05 20:56 | 60.53502 | 45.38864 | 36753 ft | 523 kts | 56° |
| 2026-05-05 20:57 | 60.57240 | 45.51476 | 36757 ft | 524 kts | 58° |
| 2026-05-05 20:57 | 60.60837 | 45.64296 | 36767 ft | 524 kts | 61° |
| 2026-05-05 20:58 | 60.64175 | 45.77421 | 36746 ft | 525 kts | 62° |
| 2026-05-05 20:58 | 60.67493 | 45.90613 | 36756 ft | 525 kts | 62° |
| 2026-05-05 20:59 | 60.70678 | 46.03928 | 36761 ft | 525 kts | 64° |
| 2026-05-05 20:59 | 60.73735 | 46.17398 | 36763 ft | 525 kts | 64° |
| 2026-05-05 21:00 | 60.76767 | 46.30901 | 36759 ft | 525 kts | 64° |
| 2026-05-05 21:00 | 60.78266 | 46.37622 | 36426 ft | 520 kts | 64° |
| 2026-05-05 21:00 | 60.79749 | 46.44301 | 36086 ft | 516 kts | 64° |
| 2026-05-05 21:01 | 60.81217 | 46.50930 | 35810 ft | 513 kts | 65° |
| 2026-05-05 21:01 | 60.82642 | 46.57575 | 35547 ft | 509 kts | 66° |
| 2026-05-05 21:01 | 60.84010 | 46.64209 | 35313 ft | 506 kts | 66° |
| 2026-05-05 21:01 | 60.85360 | 46.70810 | 35028 ft | 504 kts | 67° |
| 2026-05-05 21:02 | 60.86694 | 46.77379 | 34723 ft | 502 kts | 67° |
| 2026-05-05 21:02 | 60.88022 | 46.83952 | 34417 ft | 498 kts | 67° |
| 2026-05-05 21:02 | 60.89333 | 46.90471 | 34074 ft | 495 kts | 67° |
| 2026-05-05 21:02 | 60.90628 | 46.96946 | 33741 ft | 491 kts | 67° |
| 2026-05-05 21:03 | 60.91919 | 47.03376 | 33402 ft | 488 kts | 66° |
| 2026-05-05 21:03 | 60.93245 | 47.09737 | 33076 ft | 484 kts | 66° |
| 2026-05-05 21:03 | 60.94551 | 47.16060 | 32740 ft | 481 kts | 66° |
| 2026-05-05 21:03 | 60.95859 | 47.22316 | 32433 ft | 477 kts | 65° |
| 2026-05-05 21:04 | 60.97225 | 47.28485 | 32121 ft | 474 kts | 65° |
| 2026-05-05 21:04 | 60.98551 | 47.34637 | 31758 ft | 471 kts | 65° |
| 2026-05-05 21:04 | 60.99912 | 47.40714 | 31410 ft | 468 kts | 65° |
| 2026-05-05 21:04 | 61.01240 | 47.46793 | 31040 ft | 466 kts | 66° |
| 2026-05-05 21:05 | 61.02496 | 47.52899 | 30679 ft | 463 kts | 68° |
| 2026-05-05 21:05 | 61.03707 | 47.58997 | 30286 ft | 461 kts | 67° |
| 2026-05-05 21:05 | 61.04927 | 47.65051 | 29914 ft | 458 kts | 68° |
| 2026-05-05 21:05 | 61.06145 | 47.71073 | 29480 ft | 456 kts | 68° |
| 2026-05-05 21:06 | 61.07354 | 47.77078 | 29044 ft | 454 kts | 68° |
| 2026-05-05 21:06 | 61.08557 | 47.83055 | 28635 ft | 452 kts | 68° |
| 2026-05-05 21:06 | 61.09753 | 47.89009 | 28242 ft | 449 kts | 68° |
| 2026-05-05 21:06 | 61.10945 | 47.94921 | 27821 ft | 446 kts | 68° |
| 2026-05-05 21:07 | 61.12142 | 48.00805 | 27386 ft | 444 kts | 68° |
| 2026-05-05 21:07 | 61.13317 | 48.06647 | 26978 ft | 441 kts | 68° |
| 2026-05-05 21:07 | 61.14475 | 48.12461 | 26581 ft | 437 kts | 68° |
| 2026-05-05 21:07 | 61.15631 | 48.18229 | 26154 ft | 434 kts | 68° |
| 2026-05-05 21:08 | 61.16782 | 48.23955 | 25724 ft | 432 kts | 68° |
| 2026-05-05 21:08 | 61.17922 | 48.29663 | 25292 ft | 429 kts | 67° |
| 2026-05-05 21:08 | 61.19046 | 48.35318 | 24881 ft | 425 kts | 67° |
| 2026-05-05 21:08 | 61.20162 | 48.40949 | 24476 ft | 422 kts | 67° |
| 2026-05-05 21:09 | 61.21266 | 48.46533 | 24096 ft | 418 kts | 67° |
| 2026-05-05 21:09 | 61.22356 | 48.52064 | 23700 ft | 415 kts | 67° |
| 2026-05-05 21:09 | 61.23435 | 48.57551 | 23308 ft | 411 kts | 67° |
| 2026-05-05 21:09 | 61.24503 | 48.63002 | 22917 ft | 408 kts | 67° |
| 2026-05-05 21:10 | 61.25559 | 48.68409 | 22510 ft | 405 kts | 68° |
| 2026-05-05 21:10 | 61.26605 | 48.73794 | 22109 ft | 402 kts | 68° |
| 2026-05-05 21:10 | 61.27640 | 48.79130 | 21738 ft | 398 kts | 68° |
| 2026-05-05 21:10 | 61.28666 | 48.84424 | 21387 ft | 394 kts | 68° |
| 2026-05-05 21:11 | 61.29677 | 48.89655 | 21053 ft | 390 kts | 68° |
| 2026-05-05 21:11 | 61.30679 | 48.94849 | 20714 ft | 386 kts | 68° |
| 2026-05-05 21:11 | 61.31669 | 48.99995 | 20286 ft | 384 kts | 68° |
| 2026-05-05 21:11 | 61.32652 | 49.05118 | 19838 ft | 383 kts | 67° |
| 2026-05-05 21:12 | 61.33634 | 49.10253 | 19397 ft | 382 kts | 67° |
| 2026-05-05 21:12 | 61.34606 | 49.15344 | 18984 ft | 379 kts | 67° |
| 2026-05-05 21:12 | 61.35571 | 49.20410 | 18570 ft | 377 kts | 67° |
| 2026-05-05 21:12 | 61.36527 | 49.25445 | 18180 ft | 374 kts | 67° |
| 2026-05-05 21:13 | 61.37473 | 49.30439 | 17789 ft | 370 kts | 67° |
| 2026-05-05 21:13 | 61.38408 | 49.35387 | 17404 ft | 367 kts | 67° |
| 2026-05-05 21:13 | 61.39334 | 49.40302 | 17013 ft | 364 kts | 67° |
| 2026-05-05 21:13 | 61.40255 | 49.45175 | 16637 ft | 361 kts | 66° |
| 2026-05-05 21:14 | 61.41240 | 49.49929 | 16279 ft | 356 kts | 64° |
| 2026-05-05 21:14 | 61.42254 | 49.54601 | 15893 ft | 354 kts | 64° |
| 2026-05-05 21:14 | 61.43239 | 49.59259 | 15501 ft | 351 kts | 64° |
| 2026-05-05 21:14 | 61.44208 | 49.63898 | 15116 ft | 349 kts | 64° |
| 2026-05-05 21:15 | 61.45169 | 49.68509 | 14692 ft | 347 kts | 65° |
| 2026-05-05 21:15 | 61.46122 | 49.73108 | 14268 ft | 345 kts | 65° |
| 2026-05-05 21:15 | 61.47063 | 49.77661 | 13939 ft | 340 kts | 65° |
| 2026-05-05 21:15 | 61.47991 | 49.82151 | 13598 ft | 336 kts | 65° |
| 2026-05-05 21:16 | 61.48907 | 49.86585 | 13245 ft | 332 kts | 65° |
| 2026-05-05 21:16 | 61.49813 | 49.90987 | 12890 ft | 328 kts | 65° |
| 2026-05-05 21:16 | 61.50707 | 49.95335 | 12544 ft | 324 kts | 65° |
| 2026-05-05 21:16 | 61.51589 | 49.99632 | 12203 ft | 321 kts | 65° |
| 2026-05-05 21:17 | 61.52460 | 50.03887 | 11861 ft | 317 kts | 65° |
| 2026-05-05 21:17 | 61.53319 | 50.08095 | 11513 ft | 314 kts | 65° |
| 2026-05-05 21:17 | 61.54170 | 50.12268 | 11167 ft | 311 kts | 65° |
| 2026-05-05 21:17 | 61.55010 | 50.16395 | 10814 ft | 308 kts | 65° |
| 2026-05-05 21:18 | 61.55841 | 50.20489 | 10459 ft | 305 kts | 65° |
| 2026-05-05 21:18 | 61.56665 | 50.24557 | 10115 ft | 302 kts | 65° |
| 2026-05-05 21:18 | 61.57478 | 50.28575 | 9774 ft | 299 kts | 65° |
| 2026-05-05 21:18 | 61.58281 | 50.32554 | 9437 ft | 296 kts | 65° |
| 2026-05-05 21:19 | 61.59074 | 50.36492 | 9100 ft | 292 kts | 65° |
| 2026-05-05 21:19 | 61.59857 | 50.40386 | 8764 ft | 289 kts | 65° |
| 2026-05-05 21:19 | 61.60631 | 50.44244 | 8418 ft | 286 kts | 65° |
| 2026-05-05 21:19 | 61.61397 | 50.48066 | 8079 ft | 283 kts | 65° |
| 2026-05-05 21:20 | 61.62149 | 50.51833 | 7789 ft | 278 kts | 64° |
| 2026-05-05 21:20 | 61.62889 | 50.55542 | 7488 ft | 274 kts | 64° |
| 2026-05-05 21:20 | 61.63619 | 50.59206 | 7176 ft | 271 kts | 64° |
| 2026-05-05 21:20 | 61.64335 | 50.62810 | 6887 ft | 266 kts | 64° |
| 2026-05-05 21:21 | 61.65040 | 50.66363 | 6602 ft | 262 kts | 65° |
| 2026-05-05 21:21 | 61.65729 | 50.69860 | 6328 ft | 257 kts | 65° |
| 2026-05-05 21:21 | 61.66404 | 50.73292 | 6044 ft | 253 kts | 65° |
| 2026-05-05 21:21 | 61.67070 | 50.76695 | 5751 ft | 250 kts | 65° |
| 2026-05-05 21:22 | 61.67800 | 50.79940 | 5494 ft | 242 kts | 50° |
| 2026-05-05 21:22 | 61.68969 | 50.82311 | 5268 ft | 229 kts | 28° |
| 2026-05-05 21:22 | 61.70358 | 50.83760 | 5023 ft | 220 kts | 12° |
| 2026-05-05 21:22 | 61.71823 | 50.84346 | 4725 ft | 212 kts | 356° |
| 2026-05-05 21:23 | 61.73259 | 50.84101 | 4466 ft | 205 kts | 343° |
| 2026-05-05 21:23 | 61.74614 | 50.83349 | 4190 ft | 201 kts | 339° |
| 2026-05-05 21:23 | 61.75915 | 50.82572 | 3940 ft | 190 kts | 340° |
| 2026-05-05 21:23 | 61.77152 | 50.81843 | 3663 ft | 178 kts | 340° |
| 2026-05-05 21:24 | 61.78298 | 50.81184 | 3436 ft | 160 kts | 339° |
| 2026-05-05 21:24 | 61.79324 | 50.80616 | 3186 ft | 151 kts | 340° |
| 2026-05-05 21:24 | 61.80337 | 50.80055 | 2926 ft | 152 kts | 339° |
| 2026-05-05 21:24 | 61.81371 | 50.79450 | 2769 ft | 156 kts | 338° |
| 2026-05-05 21:25 | 61.82425 | 50.78798 | 2660 ft | 161 kts | 338° |
| 2026-05-05 21:25 | 61.83546 | 50.78330 | 2624 ft | 170 kts | 353° |
| 2026-05-05 21:25 | 61.84729 | 50.78818 | 2572 ft | 181 kts | 18° |
| 2026-05-05 21:25 | 61.85752 | 50.80458 | 2502 ft | 191 kts | 47° |
| 2026-05-05 21:26 | 61.86325 | 50.83029 | 2393 ft | 200 kts | 78° |
| 2026-05-05 21:26 | 61.86216 | 50.85937 | 2322 ft | 200 kts | 111° |
| 2026-05-05 21:26 | 61.85474 | 50.88316 | 2276 ft | 192 kts | 140° |
| 2026-05-05 21:26 | 61.84400 | 50.89837 | 2285 ft | 182 kts | 160° |
| 2026-05-05 21:27 | 61.83203 | 50.90670 | 2205 ft | 181 kts | 171° |
| 2026-05-05 21:27 | 61.81981 | 50.91252 | 2143 ft | 181 kts | 173° |
| 2026-05-05 21:27 | 61.80754 | 50.91810 | 2094 ft | 181 kts | 173° |
| 2026-05-05 21:27 | 61.79528 | 50.92374 | 2069 ft | 180 kts | 173° |
| 2026-05-05 21:28 | 61.78301 | 50.92935 | 2036 ft | 180 kts | 173° |
| 2026-05-05 21:28 | 61.77081 | 50.93500 | 2016 ft | 180 kts | 173° |
| 2026-05-05 21:28 | 61.75845 | 50.93789 | 1963 ft | 178 kts | 187° |
| 2026-05-05 21:28 | 61.74647 | 50.93338 | 1915 ft | 174 kts | 202° |
| 2026-05-05 21:29 | 61.73535 | 50.92396 | 1864 ft | 170 kts | 211° |
| 2026-05-05 21:29 | 61.72489 | 50.91360 | 1769 ft | 164 kts | 209° |
| 2026-05-05 21:29 | 61.71466 | 50.90363 | 1579 ft | 161 kts | 209° |
| 2026-05-05 21:29 | 61.70473 | 50.89454 | 1429 ft | 149 kts | 206° |
| 2026-05-05 21:30 | 61.69545 | 50.88660 | 1190 ft | 142 kts | 206° |
| 2026-05-05 21:30 | 61.68636 | 50.87834 | 1014 ft | 143 kts | 206° |
| 2026-05-05 21:30 | 61.67713 | 50.87056 | 824 ft | 144 kts | 204° |
| 2026-05-05 21:30 | 61.66782 | 50.86275 | 624 ft | 143 kts | 204° |
| 2026-05-05 21:31 | 61.65866 | 50.85503 | 422 ft | 141 kts | 202° |
| 2026-05-05 21:31 | 61.64977 | 50.84770 | 350 ft | 127 kts | 202° |
| 2026-05-05 21:31 | 61.64380 | 50.84271 | 349 ft | 51 kts | 201° |
| 2026-05-05 21:31 | 61.64124 | 50.84056 | 349 ft | 24 kts | 202° |
| 2026-05-05 21:32 | 61.63965 | 50.83923 | 349 ft | 24 kts | 201° |
| 2026-05-05 21:32 | 61.63828 | 50.83808 | 349 ft | 17 kts | 202° |
| 2026-05-05 21:32 | 61.63763 | 50.83752 | 349 ft | 6 kts | 207° |
| 2026-05-05 21:32 | 61.63723 | 50.83690 | 349 ft | 7 kts | 222° |
| 2026-05-05 21:33 | 61.63701 | 50.83690 | 349 ft | 3 kts | 95° |
| 2026-05-05 21:33 | 61.63705 | 50.83707 | 349 ft | 1 kts | 32° |
| 2026-05-05 21:33 | 61.63740 | 50.83736 | 349 ft | 9 kts | 20° |
| 2026-05-05 21:33 | 61.63830 | 50.83809 | 349 ft | 18 kts | 22° |
| 2026-05-05 21:34 | 61.63964 | 50.83920 | 349 ft | 22 kts | 22° |
| 2026-05-05 21:34 | 61.64110 | 50.84043 | 349 ft | 23 kts | 21° |
| 2026-05-05 21:34 | 61.64266 | 50.84171 | 349 ft | 24 kts | 22° |
| 2026-05-05 21:34 | 61.64430 | 50.84309 | 349 ft | 26 kts | 21° |
| 2026-05-05 21:35 | 61.64602 | 50.84451 | 349 ft | 27 kts | 21° |
| 2026-05-05 21:35 | 61.64782 | 50.84601 | 349 ft | 28 kts | 21° |
| 2026-05-05 21:35 | 61.64969 | 50.84757 | 349 ft | 29 kts | 21° |
| 2026-05-05 21:35 | 61.65162 | 50.84918 | 349 ft | 30 kts | 22° |
| 2026-05-05 21:36 | 61.65357 | 50.85080 | 349 ft | 29 kts | 21° |
| 2026-05-05 21:36 | 61.65513 | 50.85209 | 349 ft | 21 kts | 21° |
| 2026-05-05 21:36 | 61.65629 | 50.85305 | 349 ft | 15 kts | 21° |
| 2026-05-05 21:36 | 61.65730 | 50.85349 | 349 ft | 13 kts | 354° |
| 2026-05-05 21:37 | 61.65817 | 50.85290 | 349 ft | 13 kts | 337° |
| 2026-05-05 21:37 | 61.65900 | 50.85216 | 349 ft | 12 kts | 337° |
| 2026-05-05 21:37 | 61.65982 | 50.85166 | 349 ft | 12 kts | 3° |
| 2026-05-05 21:37 | 61.66063 | 50.85217 | 349 ft | 12 kts | 21° |
| 2026-05-05 21:38 | 61.66140 | 50.85283 | 349 ft | 11 kts | 22° |
| 2026-05-05 21:38 | 61.66191 | 50.85326 | 349 ft | 6 kts | 21° |
| 2026-05-05 21:38 | 61.66229 | 50.85315 | 349 ft | 5 kts | 323° |
| 2026-05-05 21:38 | 61.66248 | 50.85268 | 349 ft | 1 kts | 309° |
| 2026-05-05 21:39 | 61.66249 | 50.85267 | 349 ft | 0 kts | 309° |